createdAt,value
2023-04-09T00:00:18.207Z,28.25
2023-04-09T00:01:19.997Z,26.83
2023-04-09T00:02:21.873Z,27.55
2023-04-09T00:03:23.817Z,27.67
2023-04-09T00:04:25.688Z,28.75
2023-04-09T00:05:27.513Z,27.80
2023-04-09T00:06:29.210Z,27.58
2023-04-09T00:07:31.054Z,26.25
2023-04-09T00:08:32.987Z,26.55
2023-04-09T00:09:34.832Z,30.20
2023-04-09T00:10:36.643Z,27.27
2023-04-09T00:11:38.359Z,29.60
2023-04-09T00:12:40.227Z,29.42
2023-04-09T00:13:42.098Z,25.77
2023-04-09T00:14:43.855Z,27.42
2023-04-09T00:15:46.085Z,27.40
2023-04-09T00:16:47.803Z,26.63
2023-04-09T00:17:49.587Z,27.40
2023-04-09T00:18:52.308Z,27.77
2023-04-09T00:19:54.345Z,25.92
2023-04-09T00:20:56.339Z,27.73
2023-04-09T00:21:58.101Z,27.85
2023-04-09T00:22:59.951Z,26.05
2023-04-09T00:24:01.931Z,25.33
2023-04-09T00:25:03.786Z,24.15
2023-04-09T00:26:05.644Z,24.92
2023-04-09T00:27:07.382Z,24.10
2023-04-09T00:28:09.175Z,24.17
2023-04-09T00:29:11.455Z,22.20
2023-04-09T00:30:13.312Z,24.90
2023-04-09T00:31:15.155Z,21.92
2023-04-09T00:32:17.468Z,23.38
2023-04-09T00:33:19.223Z,23.25
2023-04-09T00:34:21.381Z,21.20
2023-04-09T00:35:23.038Z,23.98
2023-04-09T00:36:26.665Z,23.38
2023-04-09T00:37:28.856Z,22.27
2023-04-09T00:38:30.817Z,23.05
2023-04-09T00:39:32.612Z,20.85
2023-04-09T00:40:34.394Z,22.70
2023-04-09T00:41:36.237Z,22.42
2023-04-09T00:42:38.269Z,21.83
2023-04-09T00:43:40.146Z,22.33
2023-04-09T00:44:41.981Z,21.92
2023-04-09T00:45:44.265Z,22.85
2023-04-09T00:46:46.235Z,21.58
2023-04-09T00:47:48.115Z,21.65
2023-04-09T00:48:50.491Z,21.95
2023-04-09T00:49:52.509Z,22.77
2023-04-09T00:50:54.329Z,21.75
2023-04-09T00:51:56.227Z,22.95
2023-04-09T00:52:58.066Z,21.67
2023-04-09T00:54:00.111Z,21.70
2023-04-09T00:55:04.685Z,22.90
2023-04-09T00:56:07.065Z,31.15
2023-04-09T00:57:08.921Z,33.88
2023-04-09T00:58:10.804Z,33.40
2023-04-09T00:59:12.581Z,27.52
2023-04-09T01:00:14.675Z,25.13
2023-04-09T01:01:16.664Z,26.45
2023-04-09T01:02:18.446Z,24.48
2023-04-09T01:03:20.349Z,28.88
2023-04-09T01:04:22.952Z,26.02
2023-04-09T01:05:43.730Z,24.58
2023-04-09T01:06:52.653Z,24.58
2023-04-09T01:07:57.378Z,24.67
2023-04-09T01:08:59.096Z,24.58
2023-04-09T01:10:04.315Z,24.83
2023-04-09T01:11:09.518Z,24.60
2023-04-09T01:12:30.038Z,24.80
2023-04-09T01:13:52.182Z,24.17
2023-04-09T01:14:53.902Z,23.05
2023-04-09T01:15:57.413Z,24.48
2023-04-09T01:17:25.692Z,23.55
2023-04-09T01:18:40.196Z,23.77
2023-04-09T01:19:44.858Z,22.13
2023-04-09T01:20:58.356Z,22.13
2023-04-09T01:22:00.887Z,21.88
2023-04-09T01:23:11.602Z,22.73
2023-04-09T01:24:21.426Z,23.92
2023-04-09T01:25:34.543Z,22.17
2023-04-09T01:26:58.759Z,21.38
2023-04-09T01:28:03.583Z,22.15
2023-04-09T01:29:06.071Z,23.42
2023-04-09T01:30:09.196Z,24.88
2023-04-09T01:31:15.900Z,23.05
2023-04-09T01:32:18.929Z,21.70
2023-04-09T01:33:21.726Z,23.08
2023-04-09T01:34:23.701Z,23.60
2023-04-09T01:35:26.631Z,22.17
2023-04-09T01:36:29.359Z,22.92
2023-04-09T01:37:31.312Z,22.10
2023-04-09T01:38:33.856Z,23.77
2023-04-09T01:39:37.353Z,22.13
2023-04-09T01:40:39.154Z,22.42
2023-04-09T01:41:41.648Z,21.10
2023-04-09T01:42:43.592Z,22.70
2023-04-09T01:43:46.022Z,22.15
2023-04-09T01:44:48.274Z,23.00
2023-04-09T01:45:50.238Z,21.75
2023-04-09T01:46:52.102Z,21.02
2023-04-09T01:47:56.045Z,21.38
2023-04-09T01:48:57.965Z,21.20
2023-04-09T01:49:59.808Z,21.30
2023-04-09T01:51:01.719Z,22.90
2023-04-09T01:52:03.671Z,21.85
2023-04-09T01:53:05.503Z,20.70
2023-04-09T01:54:07.326Z,21.90
2023-04-09T01:55:09.378Z,20.15
2023-04-09T01:56:11.315Z,21.08
2023-04-09T01:57:13.095Z,21.63
2023-04-09T01:58:14.855Z,22.50
2023-04-09T01:59:16.710Z,20.65
2023-04-09T02:00:18.854Z,21.70
2023-04-09T02:01:23.017Z,21.45
2023-04-09T02:02:28.770Z,22.33
2023-04-09T02:03:34.473Z,22.17
2023-04-09T02:04:39.263Z,22.00
2023-04-09T02:05:49.468Z,21.90
2023-04-09T02:07:10.924Z,23.48
2023-04-09T02:08:13.734Z,22.80
2023-04-09T02:09:17.280Z,22.10
2023-04-09T02:10:20.601Z,22.58
2023-04-09T02:11:23.722Z,23.05
2023-04-09T02:12:25.535Z,23.63
2023-04-09T02:13:28.592Z,24.40
2023-04-09T02:14:31.889Z,23.63
2023-04-09T02:15:34.759Z,24.85
2023-04-09T02:16:37.259Z,23.13
2023-04-09T02:17:39.080Z,22.65
2023-04-09T02:18:41.077Z,24.15
2023-04-09T02:19:43.714Z,22.75
2023-04-09T02:20:45.749Z,23.98
2023-04-09T02:21:47.620Z,22.88
2023-04-09T02:22:49.446Z,23.52
2023-04-09T02:23:51.324Z,22.92
2023-04-09T02:24:53.073Z,23.08
2023-04-09T02:25:54.916Z,22.80
2023-04-09T02:26:56.730Z,23.48
2023-04-09T02:27:58.559Z,24.45
2023-04-09T02:29:00.370Z,20.60
2023-04-09T02:30:02.269Z,22.75
2023-04-09T02:31:04.218Z,22.92
2023-04-09T02:32:06.209Z,22.60
2023-04-09T02:33:07.917Z,23.70
2023-04-09T02:34:09.718Z,22.25
2023-04-09T02:35:11.868Z,24.15
2023-04-09T02:36:13.846Z,22.30
2023-04-09T02:37:15.805Z,22.65
2023-04-09T02:38:17.574Z,21.42
2023-04-09T02:39:19.300Z,22.30
2023-04-09T02:40:21.075Z,22.15
2023-04-09T02:41:22.896Z,22.85
2023-04-09T02:42:24.774Z,24.60
2023-04-09T02:43:26.595Z,23.90
2023-04-09T02:44:28.391Z,22.95
2023-04-09T02:45:30.232Z,22.45
2023-04-09T02:46:32.009Z,22.55
2023-04-09T02:47:33.859Z,22.60
2023-04-09T02:48:35.544Z,23.23
2023-04-09T02:49:37.295Z,24.00
2023-04-09T02:50:39.111Z,24.15
2023-04-09T02:51:40.952Z,26.60
2023-04-09T02:52:42.795Z,23.50
2023-04-09T02:53:45.908Z,24.48
2023-04-09T02:54:47.665Z,24.75
2023-04-09T02:55:49.434Z,23.30
2023-04-09T02:56:51.276Z,24.13
2023-04-09T02:57:53.126Z,24.40
2023-04-09T02:58:55.624Z,23.08
2023-04-09T02:59:57.489Z,23.98
2023-04-09T03:00:59.221Z,24.70
2023-04-09T03:02:01.038Z,25.48
2023-04-09T03:03:03.083Z,24.80
2023-04-09T03:04:04.994Z,25.30
2023-04-09T03:05:07.034Z,24.73
2023-04-09T03:06:08.856Z,23.35
2023-04-09T03:07:10.595Z,24.80
2023-04-09T03:08:12.411Z,23.52
2023-04-09T03:09:14.111Z,24.70
2023-04-09T03:10:16.043Z,24.88
2023-04-09T03:11:17.810Z,26.25
2023-04-09T03:12:19.513Z,24.38
2023-04-09T03:13:21.252Z,25.02
2023-04-09T03:14:25.967Z,25.02
2023-04-09T03:15:27.761Z,24.65
2023-04-09T03:16:29.548Z,25.75
2023-04-09T03:17:32.281Z,25.47
2023-04-09T03:18:34.132Z,27.80
2023-04-09T03:19:35.849Z,27.13
2023-04-09T03:20:38.228Z,26.17
2023-04-09T03:21:39.979Z,26.45
2023-04-09T03:22:41.665Z,24.30
2023-04-09T03:23:43.526Z,27.08
2023-04-09T03:24:45.296Z,25.85
2023-04-09T03:25:47.099Z,27.77
2023-04-09T03:26:48.916Z,29.75
2023-04-09T03:27:50.582Z,30.17
2023-04-09T03:28:52.515Z,30.75
2023-04-09T03:29:57.559Z,28.33
2023-04-09T03:30:59.335Z,28.30
2023-04-09T03:32:01.186Z,27.73
2023-04-09T03:33:02.940Z,27.58
2023-04-09T03:34:04.793Z,28.80
2023-04-09T03:35:06.702Z,29.10
2023-04-09T03:36:09.303Z,26.50
2023-04-09T03:37:11.091Z,29.65
2023-04-09T03:38:12.855Z,27.30
2023-04-09T03:39:14.645Z,29.40
2023-04-09T03:40:16.486Z,30.50
2023-04-09T03:41:18.246Z,27.33
2023-04-09T03:42:20.069Z,28.52
2023-04-09T03:43:21.994Z,29.80
2023-04-09T03:44:24.002Z,29.98
2023-04-09T03:45:25.580Z,28.23
2023-04-09T03:46:27.155Z,29.92
2023-04-09T03:47:28.786Z,30.27
2023-04-09T03:48:30.426Z,30.77
2023-04-09T03:49:32.067Z,29.48
2023-04-09T03:50:38.188Z,30.10
2023-04-09T03:51:39.832Z,30.67
2023-04-09T03:52:41.382Z,29.23
2023-04-09T03:53:42.942Z,30.23
2023-04-09T03:54:44.573Z,29.08
2023-04-09T03:55:46.562Z,28.67
2023-04-09T03:56:48.077Z,28.73
2023-04-09T03:57:49.615Z,30.02
2023-04-09T03:58:51.656Z,29.77
2023-04-09T03:59:53.607Z,27.17
2023-04-09T04:00:55.189Z,29.30
2023-04-09T04:01:56.887Z,30.15
2023-04-09T04:02:58.652Z,29.55
2023-04-09T04:04:00.711Z,28.42
2023-04-09T04:05:02.454Z,29.90
2023-04-09T04:06:04.261Z,30.13
2023-04-09T04:07:06.048Z,29.90
2023-04-09T04:08:07.779Z,28.98
2023-04-09T04:09:09.324Z,29.05
2023-04-09T04:10:11.040Z,29.27
2023-04-09T04:11:12.634Z,29.70
2023-04-09T04:12:14.254Z,29.80
2023-04-09T04:13:15.805Z,33.25
2023-04-09T04:14:17.428Z,29.08
2023-04-09T04:15:20.377Z,30.27
2023-04-09T04:16:22.079Z,30.23
2023-04-09T04:17:23.697Z,30.70
2023-04-09T04:18:25.378Z,30.70
2023-04-09T04:19:26.887Z,30.85
2023-04-09T04:20:28.504Z,29.60
2023-04-09T04:21:30.061Z,31.00
2023-04-09T04:22:31.666Z,32.70
2023-04-09T04:23:34.086Z,29.98
2023-04-09T04:24:35.785Z,31.98
2023-04-09T04:25:37.387Z,32.08
2023-04-09T04:26:39.838Z,31.85
2023-04-09T04:27:42.081Z,29.02
2023-04-09T04:28:43.678Z,31.90
2023-04-09T04:29:45.390Z,31.33
2023-04-09T04:30:46.963Z,31.85
2023-04-09T04:31:48.597Z,29.27
2023-04-09T04:32:50.474Z,32.50
2023-04-09T04:33:52.105Z,30.17
2023-04-09T04:34:54.221Z,30.15
2023-04-09T04:36:04.149Z,31.10
2023-04-09T04:37:05.738Z,29.67
2023-04-09T04:38:07.360Z,29.10
2023-04-09T04:39:08.996Z,31.48
2023-04-09T04:40:10.702Z,30.65
2023-04-09T04:41:12.369Z,31.25
2023-04-09T04:42:14.137Z,30.25
2023-04-09T04:43:15.797Z,30.13
2023-04-09T04:44:17.393Z,31.27
2023-04-09T04:45:18.928Z,31.75
2023-04-09T04:46:21.003Z,34.10
2023-04-09T04:47:22.795Z,32.30
2023-04-09T04:48:24.839Z,30.55
2023-04-09T04:49:26.361Z,31.13
2023-04-09T04:50:28.046Z,32.28
2023-04-09T04:51:31.627Z,30.55
2023-04-09T04:52:33.214Z,35.22
2023-04-09T04:53:34.761Z,32.38
2023-04-09T04:54:36.554Z,32.83
2023-04-09T04:55:39.711Z,33.30
2023-04-09T04:56:41.420Z,32.33
2023-04-09T04:57:43.031Z,32.70
2023-04-09T04:58:44.755Z,32.03
2023-04-09T04:59:46.287Z,33.55
2023-04-09T05:00:47.982Z,32.33
2023-04-09T05:01:49.786Z,35.15
2023-04-09T05:02:51.525Z,34.10
2023-04-09T05:03:53.717Z,35.80
2023-04-09T05:04:55.513Z,34.72
2023-04-09T05:05:57.088Z,35.25
2023-04-09T05:06:58.690Z,34.38
2023-04-09T05:08:00.595Z,34.63
2023-04-09T05:09:02.234Z,35.47
2023-04-09T05:10:03.911Z,37.28
2023-04-09T05:11:05.612Z,34.72
2023-04-09T05:12:07.723Z,33.78
2023-04-09T05:13:09.384Z,34.15
2023-04-09T05:14:11.091Z,34.22
2023-04-09T05:15:13.057Z,36.00
2023-04-09T05:16:18.637Z,35.78
2023-04-09T05:17:20.396Z,35.42
2023-04-09T05:18:22.076Z,37.08
2023-04-09T05:19:23.719Z,33.95
2023-04-09T05:20:27.325Z,33.53
2023-04-09T05:21:28.924Z,32.55
2023-04-09T05:22:30.522Z,35.05
2023-04-09T05:23:32.182Z,33.75
2023-04-09T05:24:34.084Z,32.45
2023-04-09T05:25:35.809Z,33.47
2023-04-09T05:26:37.489Z,33.63
2023-04-09T05:27:39.202Z,34.85
2023-04-09T05:28:40.815Z,32.35
2023-04-09T05:29:42.554Z,32.60
2023-04-09T05:30:47.438Z,32.03
2023-04-09T05:31:49.099Z,33.72
2023-04-09T05:32:50.773Z,34.10
2023-04-09T05:33:53.162Z,33.63
2023-04-09T05:34:54.787Z,35.17
2023-04-09T05:35:56.509Z,34.95
2023-04-09T05:36:58.127Z,34.45
2023-04-09T05:37:59.716Z,34.85
2023-04-09T05:39:01.227Z,35.92
2023-04-09T05:40:03.001Z,36.58
2023-04-09T05:41:04.617Z,37.25
2023-04-09T05:42:06.411Z,35.20
2023-04-09T05:43:08.034Z,35.75
2023-04-09T05:44:09.551Z,35.38
2023-04-09T05:45:11.275Z,36.30
2023-04-09T05:46:12.890Z,35.58
2023-04-09T05:47:14.473Z,35.55
2023-04-09T05:48:17.353Z,37.40
2023-04-09T05:49:19.058Z,37.50
2023-04-09T05:50:20.892Z,37.78
2023-04-09T05:51:22.466Z,37.40
2023-04-09T05:52:24.104Z,36.92
2023-04-09T05:53:25.824Z,36.08
2023-04-09T05:54:27.716Z,35.78
2023-04-09T05:55:31.116Z,36.03
2023-04-09T05:56:32.750Z,36.95
2023-04-09T05:57:34.340Z,36.58
2023-04-09T05:58:36.408Z,37.58
2023-04-09T05:59:38.000Z,37.13
2023-04-09T06:00:40.030Z,39.90
2023-04-09T06:01:41.567Z,39.33
2023-04-09T06:02:43.210Z,36.60
2023-04-09T06:03:45.090Z,37.90
2023-04-09T06:04:46.951Z,38.42
2023-04-09T06:05:48.570Z,39.30
2023-04-09T06:06:50.125Z,38.95
2023-04-09T06:07:51.903Z,40.63
2023-04-09T06:08:53.513Z,38.40
2023-04-09T06:09:55.657Z,38.00
2023-04-09T06:10:57.239Z,38.28
2023-04-09T06:11:58.915Z,38.30
2023-04-09T06:13:00.551Z,36.53
2023-04-09T06:14:02.154Z,38.13
2023-04-09T06:15:06.889Z,40.70
2023-04-09T06:16:09.197Z,38.30
2023-04-09T06:17:10.786Z,36.55
2023-04-09T06:18:12.516Z,40.35
2023-04-09T06:19:16.491Z,36.88
2023-04-09T06:20:18.112Z,38.53
2023-04-09T06:21:19.637Z,38.35
2023-04-09T06:22:21.198Z,36.38
2023-04-09T06:23:22.796Z,36.30
2023-04-09T06:24:24.495Z,37.80
2023-04-09T06:25:26.256Z,36.47
2023-04-09T06:26:27.889Z,36.10
2023-04-09T06:27:29.612Z,34.95
2023-04-09T06:28:31.804Z,34.85
2023-04-09T06:29:33.515Z,36.90
2023-04-09T06:30:37.097Z,35.67
2023-04-09T06:31:39.036Z,36.30
2023-04-09T06:32:53.172Z,36.47
2023-04-09T06:33:56.086Z,36.17
2023-04-09T06:34:58.080Z,36.83
2023-04-09T06:35:59.700Z,36.72
2023-04-09T06:37:01.495Z,37.90
2023-04-09T06:38:03.073Z,37.45
2023-04-09T06:39:04.708Z,37.35
2023-04-09T06:40:06.835Z,36.85
2023-04-09T06:41:09.253Z,33.90
2023-04-09T06:42:11.091Z,34.30
2023-04-09T06:43:12.747Z,38.10
2023-04-09T06:44:14.295Z,35.95
2023-04-09T06:45:15.957Z,39.95
2023-04-09T06:46:20.312Z,33.80
2023-04-09T06:47:22.038Z,35.97
2023-04-09T06:48:23.664Z,39.65
2023-04-09T06:49:25.350Z,37.15
2023-04-09T06:50:27.193Z,35.08
2023-04-09T06:51:28.770Z,34.13
2023-04-09T06:52:30.509Z,34.70
2023-04-09T06:53:32.041Z,36.50
2023-04-09T06:54:33.657Z,36.45
2023-04-09T06:55:35.506Z,36.05
2023-04-09T06:56:37.093Z,34.67
2023-04-09T06:57:39.400Z,37.05
2023-04-09T06:58:41.014Z,38.60
2023-04-09T06:59:42.581Z,36.28
2023-04-09T07:00:44.268Z,36.50
2023-04-09T07:01:46.239Z,35.60
2023-04-09T07:02:48.035Z,36.92
2023-04-09T07:03:49.960Z,35.40
2023-04-09T07:04:51.816Z,39.10
2023-04-09T07:05:54.460Z,37.50
2023-04-09T07:06:57.029Z,36.08
2023-04-09T07:07:58.576Z,35.08
2023-04-09T07:09:00.154Z,39.30
2023-04-09T07:10:01.949Z,38.00
2023-04-09T07:11:03.805Z,37.97
2023-04-09T07:12:05.789Z,36.50
2023-04-09T07:13:07.435Z,37.47
2023-04-09T07:14:09.010Z,39.00
2023-04-09T07:15:10.690Z,36.83
2023-04-09T07:16:12.407Z,39.88
2023-04-09T07:17:14.013Z,38.13
2023-04-09T07:18:15.921Z,38.97
2023-04-09T07:19:17.469Z,38.20
2023-04-09T07:20:19.065Z,38.50
2023-04-09T07:21:20.893Z,36.45
2023-04-09T07:22:23.003Z,35.47
2023-04-09T07:23:24.672Z,37.00
2023-04-09T07:24:26.278Z,34.78
2023-04-09T07:25:28.482Z,37.58
2023-04-09T07:26:30.495Z,39.47
2023-04-09T07:27:32.151Z,36.25
2023-04-09T07:28:33.827Z,36.17
2023-04-09T07:29:35.671Z,37.47
2023-04-09T07:30:37.668Z,35.60
2023-04-09T07:31:39.632Z,34.55
2023-04-09T07:32:41.521Z,34.72
2023-04-09T07:33:43.144Z,36.85
2023-04-09T07:34:44.747Z,34.78
2023-04-09T07:35:47.118Z,36.80
2023-04-09T07:36:48.784Z,37.45
2023-04-09T07:37:50.581Z,36.10
2023-04-09T07:38:52.368Z,37.42
2023-04-09T07:39:54.219Z,35.05
2023-04-09T07:40:55.864Z,35.22
2023-04-09T07:41:57.713Z,33.17
2023-04-09T07:42:59.372Z,32.38
2023-04-09T07:44:03.394Z,32.63
2023-04-09T07:45:05.425Z,31.85
2023-04-09T07:46:07.096Z,33.65
2023-04-09T07:47:09.141Z,34.22
2023-04-09T07:48:10.995Z,31.75
2023-04-09T07:49:12.593Z,31.65
2023-04-09T07:50:14.152Z,33.70
2023-04-09T07:51:15.891Z,40.80
2023-04-09T07:52:17.504Z,36.78
2023-04-09T07:53:19.204Z,45.40
2023-04-09T07:54:23.468Z,36.42
2023-04-09T07:55:25.081Z,33.70
2023-04-09T07:56:26.713Z,36.78
2023-04-09T07:57:28.396Z,31.77
2023-04-09T07:58:29.921Z,33.70
2023-04-09T07:59:31.891Z,31.25
2023-04-09T08:00:33.507Z,33.58
2023-04-09T08:01:35.075Z,30.08
2023-04-09T08:02:36.811Z,30.42
2023-04-09T08:03:38.565Z,30.90
2023-04-09T08:04:40.373Z,30.80
2023-04-09T08:05:42.196Z,31.58
2023-04-09T08:06:46.906Z,31.08
2023-04-09T08:07:48.609Z,27.52
2023-04-09T08:08:50.313Z,29.45
2023-04-09T08:09:52.091Z,30.98
2023-04-09T08:10:53.767Z,29.83
2023-04-09T08:11:55.948Z,31.73
2023-04-09T08:12:57.631Z,31.17
2023-04-09T08:14:02.201Z,29.35
2023-04-09T08:15:04.074Z,30.63
2023-04-09T08:16:05.745Z,29.13
2023-04-09T08:17:07.300Z,30.90
2023-04-09T08:18:09.949Z,28.98
2023-04-09T08:19:12.210Z,28.55
2023-04-09T08:20:13.933Z,30.15
2023-04-09T08:21:15.707Z,29.70
2023-04-09T08:22:17.262Z,30.27
2023-04-09T08:23:18.983Z,31.48
2023-04-09T08:24:20.595Z,29.55
2023-04-09T08:25:22.532Z,30.52
2023-04-09T08:26:24.155Z,28.90
2023-04-09T08:27:25.742Z,28.77
2023-04-09T08:28:27.390Z,28.92
2023-04-09T08:29:29.300Z,28.95
2023-04-09T08:30:30.881Z,30.42
2023-04-09T08:31:32.547Z,28.52
2023-04-09T08:32:34.180Z,27.90
2023-04-09T08:33:35.759Z,27.05
2023-04-09T08:34:37.734Z,30.90
2023-04-09T08:35:40.635Z,27.70
2023-04-09T08:36:45.496Z,28.33
2023-04-09T08:37:47.144Z,30.23
2023-04-09T08:38:49.417Z,28.15
2023-04-09T08:39:51.140Z,27.27
2023-04-09T08:40:52.786Z,27.95
2023-04-09T08:41:58.101Z,27.83
2023-04-09T08:43:00.223Z,27.25
2023-04-09T08:44:02.190Z,28.75
2023-04-09T08:45:04.599Z,28.63
2023-04-09T08:46:06.199Z,28.20
2023-04-09T08:47:10.280Z,29.15
2023-04-09T08:48:13.922Z,27.80
2023-04-09T08:49:15.966Z,27.65
2023-04-09T08:50:17.870Z,25.42
2023-04-09T08:51:21.041Z,26.30
2023-04-09T08:52:32.188Z,26.20
2023-04-09T08:53:34.001Z,25.38
2023-04-09T08:54:35.961Z,26.55
2023-04-09T08:55:37.929Z,25.92
2023-04-09T08:56:39.520Z,26.10
2023-04-09T08:57:41.302Z,25.02
2023-04-09T08:58:44.000Z,26.67
2023-04-09T08:59:45.648Z,26.00
2023-04-09T09:00:47.230Z,27.08
2023-04-09T09:01:54.721Z,25.55
2023-04-09T09:03:06.648Z,25.98
2023-04-09T09:04:08.837Z,25.02
2023-04-09T09:05:10.570Z,26.35
2023-04-09T09:06:22.016Z,26.25
2023-04-09T09:07:23.611Z,25.08
2023-04-09T09:08:26.128Z,24.33
2023-04-09T09:09:27.724Z,24.73
2023-04-09T09:10:38.900Z,23.00
2023-04-09T09:11:41.584Z,23.88
2023-04-09T09:12:43.410Z,24.10
2023-04-09T09:13:44.993Z,23.52
2023-04-09T09:14:46.641Z,23.08
2023-04-09T09:15:50.751Z,24.30
2023-04-09T09:16:58.242Z,23.40
2023-04-09T09:18:00.926Z,24.73
2023-04-09T09:19:03.196Z,21.30
2023-04-09T09:20:18.946Z,22.23
2023-04-09T09:21:20.632Z,21.92
2023-04-09T09:22:22.258Z,22.48
2023-04-09T09:23:36.917Z,20.98
2023-04-09T09:24:51.470Z,24.55
2023-04-09T09:25:53.103Z,22.13
2023-04-09T09:26:54.730Z,20.77
2023-04-09T09:28:06.376Z,21.27
2023-04-09T09:29:08.463Z,21.25
2023-04-09T09:30:20.390Z,22.20
2023-04-09T09:31:22.580Z,21.35
2023-04-09T09:32:25.388Z,20.83
2023-04-09T09:33:33.678Z,21.17
2023-04-09T09:34:35.317Z,22.60
2023-04-09T09:35:52.008Z,21.77
2023-04-09T09:36:53.749Z,22.45
2023-04-09T09:38:01.414Z,22.58
2023-04-09T09:39:10.560Z,22.85
2023-04-09T09:40:26.774Z,22.52
2023-04-09T09:41:28.432Z,21.77
2023-04-09T09:42:30.502Z,21.77
2023-04-09T09:43:40.712Z,22.08
2023-04-09T09:44:42.665Z,20.75
2023-04-09T09:45:44.562Z,20.45
2023-04-09T09:46:46.242Z,19.70
2023-04-09T09:47:48.612Z,18.58
2023-04-09T09:48:51.480Z,20.38
2023-04-09T09:49:53.301Z,17.77
2023-04-09T09:50:55.020Z,21.02
2023-04-09T09:51:58.125Z,18.85
2023-04-09T09:53:03.476Z,19.10
2023-04-09T09:54:07.392Z,21.10
2023-04-09T09:55:09.425Z,19.17
2023-04-09T09:56:22.176Z,18.55
2023-04-09T09:57:25.188Z,18.25
2023-04-09T09:58:32.996Z,19.70
2023-04-09T09:59:37.433Z,20.00
2023-04-09T10:00:40.322Z,18.75
2023-04-09T10:01:42.473Z,18.33
2023-04-09T10:02:48.313Z,17.48
2023-04-09T10:03:50.427Z,18.95
2023-04-09T10:04:53.273Z,18.63
2023-04-09T10:05:55.319Z,19.05
2023-04-09T10:06:57.160Z,17.73
2023-04-09T10:08:00.444Z,19.08
2023-04-09T10:09:04.436Z,18.73
2023-04-09T10:10:07.583Z,18.95
2023-04-09T10:11:09.215Z,17.15
2023-04-09T10:12:12.395Z,16.38
2023-04-09T10:13:34.344Z,16.37
2023-04-09T10:14:36.556Z,14.32
2023-04-09T10:15:38.621Z,14.20
2023-04-09T10:16:40.777Z,16.02
2023-04-09T10:17:42.432Z,16.10
2023-04-09T10:18:44.074Z,14.20
2023-04-09T10:19:49.526Z,16.90
2023-04-09T10:20:59.256Z,15.23
2023-04-09T10:22:16.795Z,14.48
2023-04-09T10:23:35.887Z,14.35
2023-04-09T10:24:37.527Z,13.55
2023-04-09T10:25:39.143Z,13.55
2023-04-09T10:26:41.371Z,13.23
2023-04-09T10:27:46.333Z,12.70
2023-04-09T10:29:02.964Z,12.30
2023-04-09T10:30:07.633Z,12.68
2023-04-09T10:31:09.340Z,10.82
2023-04-09T10:32:11.840Z,12.40
2023-04-09T10:33:17.374Z,11.18
2023-04-09T10:34:23.696Z,11.43
2023-04-09T10:35:25.477Z,11.98
2023-04-09T10:36:28.043Z,11.45
2023-04-09T10:37:30.212Z,11.82
2023-04-09T10:38:41.743Z,10.75
2023-04-09T10:39:47.634Z,11.77
2023-04-09T10:40:50.568Z,13.60
2023-04-09T10:41:53.170Z,12.20
2023-04-09T10:42:58.479Z,12.40
2023-04-09T10:44:00.006Z,11.80
2023-04-09T10:45:11.311Z,12.88
2023-04-09T10:46:26.886Z,11.57
2023-04-09T10:47:34.432Z,11.82
2023-04-09T10:48:36.527Z,13.05
2023-04-09T10:49:39.215Z,12.43
2023-04-09T10:50:45.253Z,13.15
2023-04-09T10:52:07.112Z,12.20
2023-04-09T10:53:22.321Z,13.25
2023-04-09T10:54:33.354Z,11.65
2023-04-09T10:55:42.026Z,10.68
2023-04-09T10:57:03.580Z,12.13
2023-04-09T10:58:12.243Z,12.20
2023-04-09T10:59:14.657Z,13.05
2023-04-09T11:00:16.388Z,12.05
2023-04-09T11:01:24.468Z,13.27
2023-04-09T11:02:32.533Z,12.40
2023-04-09T11:03:38.512Z,12.15
2023-04-09T11:05:12.246Z,11.15
2023-04-09T11:06:14.741Z,12.63
2023-04-09T11:07:18.062Z,15.43
2023-04-09T11:08:19.798Z,11.45
2023-04-09T11:09:21.808Z,12.52
2023-04-09T11:10:23.385Z,12.73
2023-04-09T11:11:28.108Z,13.35
2023-04-09T11:12:29.697Z,12.95
2023-04-09T11:13:32.110Z,12.60
2023-04-09T11:14:33.998Z,12.60
2023-04-09T11:15:36.603Z,11.25
2023-04-09T11:16:38.218Z,12.50
2023-04-09T11:17:39.868Z,12.02
2023-04-09T11:18:41.531Z,12.30
2023-04-09T11:19:44.372Z,12.02
2023-04-09T11:20:46.163Z,11.63
2023-04-09T11:21:48.535Z,12.02
2023-04-09T11:22:54.335Z,12.23
2023-04-09T11:23:55.932Z,11.02
2023-04-09T11:24:57.581Z,12.40
2023-04-09T11:25:59.189Z,10.75
2023-04-09T11:27:02.152Z,9.55
2023-04-09T11:28:05.184Z,9.50
2023-04-09T11:29:09.682Z,9.70
2023-04-09T11:30:11.637Z,10.70
2023-04-09T11:31:13.273Z,10.70
2023-04-09T11:32:15.050Z,9.43
2023-04-09T11:33:19.136Z,10.90
2023-04-09T11:34:21.447Z,10.27
2023-04-09T11:35:23.299Z,11.00
2023-04-09T11:36:24.845Z,8.57
2023-04-09T11:37:26.457Z,11.60
2023-04-09T11:38:31.259Z,10.20
2023-04-09T11:39:32.815Z,10.90
2023-04-09T11:40:34.701Z,10.55
2023-04-09T11:41:36.979Z,9.15
2023-04-09T11:42:38.541Z,9.85
2023-04-09T11:43:40.080Z,9.27
2023-04-09T11:44:41.821Z,10.05
2023-04-09T11:45:43.834Z,11.10
2023-04-09T11:46:45.570Z,10.90
2023-04-09T11:47:47.489Z,10.77
2023-04-09T11:48:49.093Z,10.63
2023-04-09T11:49:50.795Z,10.65
2023-04-09T11:50:52.922Z,11.10
2023-04-09T11:51:54.811Z,10.18
2023-04-09T11:52:57.022Z,12.30
2023-04-09T11:54:02.571Z,10.02
2023-04-09T11:55:05.157Z,10.73
2023-04-09T11:56:07.361Z,9.98
2023-04-09T11:57:09.155Z,9.93
2023-04-09T11:58:11.804Z,9.52
2023-04-09T11:59:14.887Z,10.75
2023-04-09T12:00:17.156Z,10.40
2023-04-09T12:01:18.796Z,9.52
2023-04-09T12:02:20.753Z,11.05
2023-04-09T12:03:30.874Z,13.25
2023-04-09T12:04:32.801Z,11.77
2023-04-09T12:05:35.210Z,10.05
2023-04-09T12:06:40.600Z,10.10
2023-04-09T12:07:55.578Z,9.30
2023-04-09T12:08:58.583Z,9.15
2023-04-09T12:10:06.979Z,9.60
2023-04-09T12:11:09.844Z,8.95
2023-04-09T12:12:11.744Z,8.13
2023-04-09T12:13:13.949Z,9.50
2023-04-09T12:14:19.340Z,9.57
2023-04-09T12:15:25.136Z,9.00
2023-04-09T12:16:26.822Z,9.10
2023-04-09T12:17:28.582Z,9.55
2023-04-09T12:18:30.520Z,10.18
2023-04-09T12:19:32.127Z,10.15
2023-04-09T12:20:35.002Z,8.88
2023-04-09T12:21:49.554Z,9.95
2023-04-09T12:22:51.290Z,10.15
2023-04-09T12:23:52.857Z,8.98
2023-04-09T12:24:55.257Z,9.25
2023-04-09T12:25:59.765Z,9.88
2023-04-09T12:27:01.820Z,11.10
2023-04-09T12:28:04.182Z,9.07
2023-04-09T12:29:05.718Z,9.80
2023-04-09T12:30:07.815Z,9.55
2023-04-09T12:31:09.991Z,10.35
2023-04-09T12:32:11.560Z,9.48
2023-04-09T12:33:13.288Z,8.88
2023-04-09T12:34:14.913Z,9.88
2023-04-09T12:35:16.671Z,9.80
2023-04-09T12:36:18.381Z,9.32
2023-04-09T12:37:19.912Z,10.52
2023-04-09T12:38:21.673Z,8.90
2023-04-09T12:39:23.300Z,9.35
2023-04-09T12:40:24.923Z,9.23
2023-04-09T12:41:26.539Z,10.55
2023-04-09T12:42:28.196Z,9.77
2023-04-09T12:43:29.897Z,9.68
2023-04-09T12:44:33.244Z,12.43
2023-04-09T12:45:34.838Z,10.02
2023-04-09T12:46:36.412Z,10.05
2023-04-09T12:47:38.162Z,9.68
2023-04-09T12:48:39.906Z,9.50
2023-04-09T12:49:45.378Z,9.50
2023-04-09T12:50:47.235Z,9.80
2023-04-09T12:51:48.861Z,9.80
2023-04-09T12:52:50.659Z,9.63
2023-04-09T12:53:52.636Z,10.80
2023-04-09T12:54:54.473Z,10.75
2023-04-09T12:55:56.042Z,10.93
2023-04-09T12:56:57.830Z,9.82
2023-04-09T12:57:59.449Z,11.00
2023-04-09T12:59:01.191Z,9.68
2023-04-09T13:00:05.128Z,10.48
2023-04-09T13:01:06.980Z,9.07
2023-04-09T13:02:08.744Z,11.23
2023-04-09T13:03:10.803Z,9.07
2023-04-09T13:04:12.565Z,8.70
2023-04-09T13:05:14.331Z,8.70
2023-04-09T13:06:16.061Z,9.88
2023-04-09T13:07:18.345Z,9.02
2023-04-09T13:08:19.994Z,8.57
2023-04-09T13:09:21.606Z,9.70
2023-04-09T13:10:23.208Z,8.63
2023-04-09T13:11:24.749Z,9.18
2023-04-09T13:12:27.458Z,8.55
2023-04-09T13:13:29.058Z,9.05
2023-04-09T13:14:30.965Z,9.15
2023-04-09T13:15:32.489Z,9.98
2023-04-09T13:16:34.341Z,8.80
2023-04-09T13:17:36.070Z,8.18
2023-04-09T13:18:37.713Z,9.73
2023-04-09T13:19:42.020Z,9.63
2023-04-09T13:20:44.287Z,9.10
2023-04-09T13:21:45.921Z,12.05
2023-04-09T13:22:49.149Z,8.75
2023-04-09T13:23:50.824Z,10.52
2023-04-09T13:24:52.913Z,9.10
2023-04-09T13:25:54.834Z,8.10
2023-04-09T13:26:56.440Z,8.60
2023-04-09T13:27:57.993Z,8.63
2023-04-09T13:28:59.872Z,9.63
2023-04-09T13:30:01.502Z,9.90
2023-04-09T13:31:03.293Z,9.02
2023-04-09T13:32:07.635Z,8.77
2023-04-09T13:33:09.341Z,8.63
2023-04-09T13:34:11.073Z,7.95